createdAt,value
2022-09-15T00:02:07.721Z,994.06
2022-09-15T00:05:07.678Z,994.11
2022-09-15T00:08:07.654Z,994.08
2022-09-15T00:11:07.664Z,994.06
2022-09-15T00:14:07.657Z,994.01
2022-09-15T00:17:07.715Z,994
2022-09-15T00:20:07.668Z,993.98
2022-09-15T00:23:07.659Z,993.97
2022-09-15T00:26:07.662Z,993.95
2022-09-15T00:29:07.663Z,993.95
2022-09-15T00:32:07.661Z,993.92
2022-09-15T00:35:07.654Z,994.03
2022-09-15T00:38:07.662Z,993.99
2022-09-15T00:41:07.668Z,994.03
2022-09-15T00:44:07.661Z,993.95
2022-09-15T00:47:19.063Z,993.92
2022-09-15T00:50:07.672Z,993.88
2022-09-15T00:53:07.659Z,993.89
2022-09-15T00:56:07.672Z,993.91
2022-09-15T00:59:07.666Z,993.98
2022-09-15T01:02:07.757Z,993.98
2022-09-15T01:05:07.662Z,993.91
2022-09-15T01:08:07.658Z,993.93
2022-09-15T01:11:07.671Z,993.87
2022-09-15T01:14:07.669Z,993.8
2022-09-15T01:17:07.659Z,993.83
2022-09-15T01:20:07.667Z,993.94
2022-09-15T01:23:07.670Z,994.01
2022-09-15T01:26:07.684Z,994.01
2022-09-15T01:29:07.666Z,993.98
2022-09-15T01:32:07.663Z,993.94
2022-09-15T01:35:07.666Z,993.91
2022-09-15T01:38:07.675Z,993.96
2022-09-15T01:41:07.674Z,994.02
2022-09-15T01:44:07.667Z,993.9
2022-09-15T01:47:07.666Z,993.9
2022-09-15T01:50:07.661Z,993.9
2022-09-15T01:53:07.666Z,993.85
2022-09-15T01:56:07.671Z,993.91
2022-09-15T01:59:07.665Z,993.98
2022-09-15T02:02:07.685Z,993.97
2022-09-15T02:05:07.683Z,993.93
2022-09-15T02:08:07.668Z,993.84
2022-09-15T02:11:07.671Z,993.96
2022-09-15T02:14:07.676Z,993.95
2022-09-15T02:17:07.675Z,993.93
2022-09-15T02:20:07.702Z,993.85
2022-09-15T02:23:07.670Z,993.89
2022-09-15T02:26:07.680Z,993.92
2022-09-15T02:29:07.671Z,993.96
2022-09-15T02:32:07.759Z,994.01
2022-09-15T02:35:07.682Z,994.01
2022-09-15T02:38:07.682Z,994.01
2022-09-15T02:41:07.680Z,994.04
2022-09-15T02:44:07.672Z,994.04
2022-09-15T02:47:07.678Z,994.06
2022-09-15T02:50:07.697Z,994.09
2022-09-15T02:53:07.673Z,994.03
2022-09-15T02:56:07.679Z,994.04
2022-09-15T02:59:07.675Z,994.04
2022-09-15T03:02:07.703Z,994.08
2022-09-15T03:05:07.678Z,994.15
2022-09-15T03:08:07.675Z,994.14
2022-09-15T03:11:07.675Z,994.19
2022-09-15T03:14:07.674Z,994.22
2022-09-15T03:17:07.672Z,994.2
2022-09-15T03:20:07.680Z,994.23
2022-09-15T03:23:07.677Z,994.25
2022-09-15T03:26:07.683Z,994.24
2022-09-15T03:29:07.684Z,994.27
2022-09-15T03:32:07.672Z,994.29
2022-09-15T03:35:07.684Z,994.32
2022-09-15T03:38:07.679Z,994.37
2022-09-15T03:41:07.686Z,994.38
2022-09-15T03:44:07.681Z,994.41
2022-09-15T03:47:07.683Z,994.4
2022-09-15T03:50:07.686Z,994.44
2022-09-15T03:53:07.682Z,994.52
2022-09-15T03:56:07.679Z,994.57
2022-09-15T03:59:07.688Z,994.59
2022-09-15T04:02:07.731Z,994.54
2022-09-15T04:05:07.697Z,994.6
2022-09-15T04:08:07.683Z,994.61
2022-09-15T04:11:07.687Z,994.68
2022-09-15T04:14:07.683Z,994.69
2022-09-15T04:17:07.681Z,994.72
2022-09-15T04:20:07.693Z,994.68
2022-09-15T04:23:07.678Z,994.74
2022-09-15T04:26:07.678Z,994.77
2022-09-15T04:29:07.684Z,994.79
2022-09-15T04:32:07.684Z,994.82
2022-09-15T04:35:07.688Z,994.86
2022-09-15T04:38:07.679Z,994.83
2022-09-15T04:41:07.679Z,994.9
2022-09-15T04:44:07.680Z,994.91
2022-09-15T04:47:07.773Z,994.91
2022-09-15T04:50:07.679Z,994.94
2022-09-15T04:53:07.685Z,994.96
2022-09-15T04:56:07.685Z,995
2022-09-15T04:59:07.693Z,995.04
2022-09-15T05:02:07.745Z,995.05
2022-09-15T05:05:07.699Z,995.03
2022-09-15T05:08:07.699Z,995.07
2022-09-15T05:11:07.694Z,995.12
2022-09-15T05:14:07.698Z,995.1
2022-09-15T05:17:07.688Z,995.14
2022-09-15T05:20:07.690Z,995.17
2022-09-15T05:23:07.718Z,995.17
2022-09-15T05:26:07.691Z,995.21
2022-09-15T05:29:07.688Z,995.2
2022-09-15T05:32:07.731Z,995.26
2022-09-15T05:35:07.696Z,995.32
2022-09-15T05:38:07.692Z,995.35
2022-09-15T05:41:07.699Z,995.4
2022-09-15T05:44:07.702Z,995.45
2022-09-15T05:47:07.696Z,995.47
2022-09-15T05:50:07.703Z,995.52
2022-09-15T05:53:07.691Z,995.61
2022-09-15T05:56:07.699Z,995.57
2022-09-15T05:59:07.705Z,995.61
2022-09-15T06:02:07.751Z,995.69
2022-09-15T06:05:07.721Z,995.79
2022-09-15T06:08:07.717Z,995.82
2022-09-15T06:11:07.704Z,995.82
2022-09-15T06:14:07.699Z,995.84
2022-09-15T06:17:07.706Z,995.8
2022-09-15T06:20:07.717Z,995.85
2022-09-15T06:23:07.709Z,995.89
2022-09-15T06:26:07.707Z,995.87
2022-09-15T06:29:07.705Z,995.92
2022-09-15T06:32:07.746Z,995.94
2022-09-15T06:35:07.717Z,995.97
2022-09-15T06:38:07.715Z,996
2022-09-15T06:41:07.713Z,996.07
2022-09-15T06:44:07.706Z,996.08
2022-09-15T06:47:07.702Z,996.09
2022-09-15T06:50:07.716Z,996.02
2022-09-15T06:53:07.730Z,996.07
2022-09-15T06:56:07.715Z,996.15
2022-09-15T06:59:07.721Z,996.16
2022-09-15T07:02:07.806Z,996.17
2022-09-15T07:05:07.717Z,996.19
2022-09-15T07:08:07.741Z,996.16
2022-09-15T07:11:07.720Z,996.24
2022-09-15T07:14:07.721Z,996.22
2022-09-15T07:17:08.084Z,996.27
2022-09-15T07:20:08.093Z,996.29
2022-09-15T07:23:08.098Z,996.35
2022-09-15T07:26:08.089Z,996.35
2022-09-15T07:29:08.098Z,996.41
2022-09-15T07:32:08.801Z,996.49
2022-09-15T07:35:08.360Z,996.58
2022-09-15T07:38:08.306Z,996.55
2022-09-15T07:41:09.255Z,996.55
2022-09-15T07:44:08.323Z,996.55
2022-09-15T07:47:08.321Z,996.56
2022-09-15T07:50:08.315Z,996.58
2022-09-15T07:53:08.311Z,996.6
2022-09-15T07:56:08.310Z,996.67
2022-09-15T07:59:08.341Z,996.7
2022-09-15T08:02:08.370Z,996.7
2022-09-15T08:05:08.331Z,996.67
2022-09-15T08:08:08.323Z,996.75
2022-09-15T08:11:08.331Z,996.78
2022-09-15T08:14:08.334Z,996.87
2022-09-15T08:17:11.482Z,996.92
2022-09-15T08:20:08.320Z,996.92
2022-09-15T08:23:08.329Z,996.98
2022-09-15T08:26:11.914Z,996.99
2022-09-15T08:29:08.338Z,997.07
2022-09-15T08:32:08.342Z,997.11
2022-09-15T08:35:08.334Z,997.14
2022-09-15T08:38:08.382Z,997.13
2022-09-15T08:41:08.321Z,997.21
2022-09-15T08:44:08.356Z,997.26
2022-09-15T08:47:08.330Z,997.34
2022-09-15T08:50:08.332Z,997.4
2022-09-15T08:53:08.333Z,997.38
2022-09-15T08:56:10.063Z,997.36
2022-09-15T08:59:08.330Z,997.33
2022-09-15T09:02:08.390Z,997.3
2022-09-15T09:05:08.324Z,997.32
2022-09-15T09:08:08.338Z,997.34
2022-09-15T09:11:08.339Z,997.31
2022-09-15T09:14:08.325Z,997.31
2022-09-15T09:17:08.324Z,997.32
2022-09-15T09:20:08.333Z,997.33
2022-09-15T09:23:08.330Z,997.38
2022-09-15T09:26:10.508Z,997.37
2022-09-15T09:29:08.334Z,997.41
2022-09-15T09:32:08.329Z,997.39
2022-09-15T09:35:08.332Z,997.39
2022-09-15T09:38:08.335Z,997.35
2022-09-15T09:41:08.328Z,997.37
2022-09-15T09:44:08.330Z,997.33
2022-09-15T09:47:08.349Z,997.37
2022-09-15T09:50:08.345Z,997.39
2022-09-15T09:53:08.331Z,997.43
2022-09-15T09:56:08.333Z,997.45
2022-09-15T09:59:08.340Z,997.46
2022-09-15T10:02:08.334Z,997.38
2022-09-15T10:05:08.352Z,997.46
2022-09-15T10:08:08.339Z,997.41
2022-09-15T10:11:08.341Z,997.43
2022-09-15T10:14:08.337Z,997.42
2022-09-15T10:17:08.338Z,997.39
2022-09-15T10:20:08.345Z,997.36
2022-09-15T10:23:08.338Z,997.3
2022-09-15T10:26:08.343Z,997.28
2022-09-15T10:29:08.338Z,997.25
2022-09-15T10:32:08.397Z,997.31
2022-09-15T10:35:08.333Z,997.3
2022-09-15T10:38:08.342Z,997.31
2022-09-15T10:41:08.337Z,997.38
2022-09-15T10:44:08.337Z,997.39
2022-09-15T10:47:08.351Z,997.4
2022-09-15T10:50:08.386Z,997.4
2022-09-15T10:53:08.346Z,997.38
2022-09-15T10:56:08.340Z,997.39
2022-09-15T10:59:08.340Z,997.41
2022-09-15T11:02:08.404Z,997.39
2022-09-15T11:05:08.337Z,997.37
2022-09-15T11:08:08.340Z,997.37
2022-09-15T11:11:08.348Z,997.31
2022-09-15T11:14:08.347Z,997.31
2022-09-15T11:17:08.339Z,997.36
2022-09-15T11:20:08.371Z,997.37
2022-09-15T11:23:08.373Z,997.46
2022-09-15T11:26:08.342Z,997.45
2022-09-15T11:29:08.350Z,997.56
2022-09-15T11:32:08.341Z,997.55
2022-09-15T11:35:08.339Z,997.6
2022-09-15T11:38:12.286Z,997.61
2022-09-15T11:41:08.355Z,997.72
2022-09-15T11:44:08.343Z,997.7
2022-09-15T11:47:08.364Z,997.76
2022-09-15T11:50:08.398Z,997.74
2022-09-15T11:53:08.341Z,997.68
2022-09-15T11:56:08.343Z,997.65
2022-09-15T11:59:08.346Z,997.64
2022-09-15T12:02:08.370Z,997.66
2022-09-15T12:05:08.343Z,997.63
2022-09-15T12:08:08.336Z,997.61
2022-09-15T12:11:08.342Z,997.56
2022-09-15T12:14:08.344Z,997.61
2022-09-15T12:17:08.342Z,997.63
2022-09-15T12:20:08.339Z,997.6
2022-09-15T12:23:08.351Z,997.59
2022-09-15T12:26:08.348Z,997.62
2022-09-15T12:29:08.343Z,997.62
2022-09-15T12:32:08.344Z,997.62
2022-09-15T12:35:12.872Z,997.66
2022-09-15T12:38:08.386Z,997.69
2022-09-15T12:41:08.378Z,997.73
2022-09-15T12:44:08.385Z,997.8
2022-09-15T12:47:08.381Z,997.8
2022-09-15T12:50:08.387Z,997.82
2022-09-15T12:53:08.388Z,997.85
2022-09-15T12:56:08.377Z,997.91
2022-09-15T12:59:08.380Z,997.96
2022-09-15T13:02:08.463Z,997.98
2022-09-15T13:05:08.379Z,997.98
2022-09-15T13:08:08.384Z,998
2022-09-15T13:11:08.378Z,998.01
2022-09-15T13:14:08.377Z,997.97
2022-09-15T13:17:08.376Z,997.94
2022-09-15T13:20:08.376Z,997.98
2022-09-15T13:23:08.379Z,997.94
2022-09-15T13:26:08.373Z,997.9
2022-09-15T13:29:08.373Z,997.97
2022-09-15T13:32:08.382Z,997.93
2022-09-15T13:35:14.785Z,997.92
2022-09-15T13:38:15.486Z,997.91
2022-09-15T13:41:08.382Z,997.9
2022-09-15T13:44:08.379Z,997.94
2022-09-15T13:47:08.378Z,997.92
2022-09-15T13:50:08.378Z,997.92
2022-09-15T13:53:08.372Z,997.88
2022-09-15T13:56:08.382Z,997.9
2022-09-15T13:59:12.573Z,997.9
2022-09-15T14:02:08.613Z,997.9
2022-09-15T14:05:08.389Z,997.86
2022-09-15T14:08:08.390Z,997.8
2022-09-15T14:11:08.386Z,997.85
2022-09-15T14:14:08.392Z,997.82
2022-09-15T14:17:08.427Z,997.81
2022-09-15T14:20:08.390Z,997.85
2022-09-15T14:23:08.401Z,997.85
2022-09-15T14:26:08.396Z,997.79
2022-09-15T14:29:08.384Z,997.77
2022-09-15T14:32:08.476Z,997.74
2022-09-15T14:35:08.398Z,997.7
2022-09-15T14:38:08.399Z,997.75
2022-09-15T14:41:08.400Z,997.77
2022-09-15T14:44:08.393Z,997.76
2022-09-15T14:47:08.390Z,997.74
2022-09-15T14:50:08.392Z,997.73
2022-09-15T14:53:08.396Z,997.74
2022-09-15T14:56:08.607Z,997.74
2022-09-15T14:59:08.393Z,997.73
2022-09-15T15:02:08.491Z,997.73
2022-09-15T15:05:08.391Z,997.8
2022-09-15T15:08:08.395Z,997.77
2022-09-15T15:11:08.390Z,997.76
2022-09-15T15:14:08.501Z,997.71
2022-09-15T15:17:08.408Z,997.69
2022-09-15T15:20:08.392Z,997.76
2022-09-15T15:23:08.390Z,997.76
2022-09-15T15:26:08.392Z,997.77
2022-09-15T15:29:08.406Z,997.72
2022-09-15T15:32:08.436Z,997.72
2022-09-15T15:35:08.409Z,997.67
2022-09-15T15:38:08.394Z,997.73
2022-09-15T15:41:08.399Z,997.77
2022-09-15T15:44:08.486Z,997.78
2022-09-15T15:47:08.397Z,997.76
2022-09-15T15:50:13.114Z,997.77
2022-09-15T15:53:08.402Z,997.8
2022-09-15T15:56:08.401Z,997.89
2022-09-15T15:59:08.403Z,997.87
2022-09-15T16:02:08.405Z,997.9
2022-09-15T16:05:08.402Z,997.95
2022-09-15T16:08:08.403Z,997.94
2022-09-15T16:11:08.390Z,997.98
2022-09-15T16:14:08.399Z,997.95
2022-09-15T16:17:08.403Z,997.93
2022-09-15T16:20:08.407Z,997.87
2022-09-15T16:23:08.409Z,997.88
2022-09-15T16:26:08.401Z,997.91
2022-09-15T16:29:08.408Z,997.93
2022-09-15T16:32:08.401Z,997.96
2022-09-15T16:35:08.401Z,997.98
2022-09-15T16:38:08.405Z,998
2022-09-15T16:41:08.403Z,998.02
2022-09-15T16:44:08.414Z,998.05
2022-09-15T16:47:08.402Z,998.1
2022-09-15T16:50:08.402Z,998.07
2022-09-15T16:53:08.409Z,998.07
2022-09-15T16:56:08.426Z,998.05
2022-09-15T16:59:08.412Z,998.04
2022-09-15T17:02:08.513Z,998.02
2022-09-15T17:05:08.416Z,998.05
2022-09-15T17:08:08.405Z,998.04
2022-09-15T17:11:08.407Z,998.02
2022-09-15T17:14:08.405Z,998.03
2022-09-15T17:17:08.439Z,998.04
2022-09-15T17:20:08.408Z,998.04
2022-09-15T17:23:08.409Z,998.06
2022-09-15T17:26:08.413Z,998.07
2022-09-15T17:29:08.403Z,998.08
2022-09-15T17:32:08.415Z,998.09
2022-09-15T17:35:08.406Z,998.12
2022-09-15T17:38:08.415Z,998.12
2022-09-15T17:41:08.411Z,998.15
2022-09-15T17:44:08.414Z,998.19
2022-09-15T17:47:08.411Z,998.18
2022-09-15T17:50:08.418Z,998.21
2022-09-15T17:53:10.812Z,998.19
2022-09-15T17:56:08.424Z,998.22
2022-09-15T17:59:10.129Z,998.23
2022-09-15T18:02:08.497Z,998.25
2022-09-15T18:05:08.406Z,998.31
2022-09-15T18:08:08.411Z,998.36
2022-09-15T18:11:08.409Z,998.42
2022-09-15T18:14:08.416Z,998.4
2022-09-15T18:17:08.415Z,998.46
2022-09-15T18:20:08.402Z,998.51
2022-09-15T18:23:08.418Z,998.59
2022-09-15T18:26:08.410Z,998.59
2022-09-15T18:29:08.420Z,998.62
2022-09-15T18:32:08.404Z,998.64
2022-09-15T18:35:08.434Z,998.71
2022-09-15T18:38:08.423Z,998.81
2022-09-15T18:41:08.412Z,998.87
2022-09-15T18:44:08.419Z,998.92
2022-09-15T18:47:08.427Z,999
2022-09-15T18:50:08.420Z,999.05
2022-09-15T18:53:08.427Z,999.09
2022-09-15T18:56:08.429Z,999.15
2022-09-15T18:59:08.420Z,999.15
2022-09-15T19:02:08.510Z,999.16
2022-09-15T19:05:08.416Z,999.1
2022-09-15T19:08:08.422Z,999.03
2022-09-15T19:11:08.426Z,999.01
2022-09-15T19:14:08.434Z,999.06
2022-09-15T19:17:08.489Z,999.03
2022-09-15T19:20:08.483Z,999.1
2022-09-15T19:23:08.415Z,999.16
2022-09-15T19:26:08.447Z,999.16
2022-09-15T19:29:08.424Z,999.14
2022-09-15T19:32:08.435Z,999.16
2022-09-15T19:35:08.424Z,999.16
2022-09-15T19:38:08.424Z,999.18
2022-09-15T19:41:08.436Z,999.16
2022-09-15T19:44:09.465Z,999.13
2022-09-15T19:47:08.419Z,999.14
2022-09-15T19:50:08.422Z,999.18
2022-09-15T19:53:08.432Z,999.2
2022-09-15T19:56:08.447Z,999.18
2022-09-15T19:59:08.480Z,999.18
2022-09-15T20:02:08.467Z,999.16
2022-09-15T20:05:08.438Z,999.18
2022-09-15T20:08:08.447Z,999.23
2022-09-15T20:11:08.443Z,999.23
2022-09-15T20:14:08.443Z,999.28
2022-09-15T20:17:08.501Z,999.27
2022-09-15T20:20:08.438Z,999.21
2022-09-15T20:23:08.436Z,999.21
2022-09-15T20:26:08.450Z,999.29
2022-09-15T20:29:08.437Z,999.27
2022-09-15T20:32:08.441Z,999.3
2022-09-15T20:35:08.443Z,999.34
2022-09-15T20:38:08.442Z,999.37
2022-09-15T20:41:08.444Z,999.39
2022-09-15T20:44:08.447Z,999.48
2022-09-15T20:47:08.463Z,999.44
2022-09-15T20:50:08.443Z,999.52
2022-09-15T20:53:08.454Z,999.49
2022-09-15T20:56:08.443Z,999.51
2022-09-15T20:59:08.442Z,999.49
2022-09-15T21:02:08.474Z,999.5
2022-09-15T21:05:08.451Z,999.51
2022-09-15T21:08:08.443Z,999.48
2022-09-15T21:11:08.450Z,999.52
2022-09-15T21:14:08.439Z,999.5
2022-09-15T21:17:08.441Z,999.53
2022-09-15T21:20:08.448Z,999.5
2022-09-15T21:23:08.443Z,999.52
2022-09-15T21:26:08.448Z,999.57
2022-09-15T21:29:08.451Z,999.56
2022-09-15T21:32:08.523Z,999.57
2022-09-15T21:35:08.452Z,999.57
2022-09-15T21:38:08.446Z,999.64
2022-09-15T21:41:08.450Z,999.73
2022-09-15T21:44:08.438Z,999.75
2022-09-15T21:47:08.449Z,999.74
2022-09-15T21:50:08.448Z,999.72
2022-09-15T21:53:08.447Z,999.68
2022-09-15T21:56:08.443Z,999.77
2022-09-15T21:59:08.439Z,999.81
2022-09-15T22:02:08.475Z,999.84
2022-09-15T22:05:08.443Z,999.86
2022-09-15T22:08:08.449Z,999.84
2022-09-15T22:11:08.437Z,999.81
2022-09-15T22:14:08.453Z,999.85
2022-09-15T22:17:08.448Z,999.91
2022-09-15T22:20:08.454Z,999.88
2022-09-15T22:23:08.440Z,999.85
2022-09-15T22:26:08.441Z,999.82
2022-09-15T22:29:08.453Z,999.85
2022-09-15T22:32:08.446Z,999.82
2022-09-15T22:35:08.453Z,999.82
2022-09-15T22:38:08.446Z,999.82
2022-09-15T22:41:08.457Z,999.82
2022-09-15T22:44:08.458Z,999.77
2022-09-15T22:47:08.449Z,999.78
2022-09-15T22:50:08.456Z,999.84
2022-09-15T22:53:08.457Z,999.84
2022-09-15T22:56:08.456Z,999.86
2022-09-15T22:59:08.457Z,999.86
2022-09-15T23:02:08.480Z,999.88
2022-09-15T23:05:08.461Z,999.86
2022-09-15T23:08:08.447Z,999.88
2022-09-15T23:11:08.452Z,999.88
2022-09-15T23:14:08.451Z,999.9
2022-09-15T23:17:08.463Z,999.9
2022-09-15T23:20:08.451Z,999.93
2022-09-15T23:23:08.460Z,999.92
2022-09-15T23:26:08.455Z,999.9
2022-09-15T23:29:08.449Z,999.91
2022-09-15T23:32:08.452Z,999.92
2022-09-15T23:35:08.465Z,999.91
2022-09-15T23:38:08.459Z,999.89
2022-09-15T23:41:08.462Z,999.93
2022-09-15T23:44:08.454Z,999.9
2022-09-15T23:47:08.466Z,999.9
2022-09-15T23:50:08.457Z,999.91
2022-09-15T23:53:08.454Z,999.9
2022-09-15T23:56:08.457Z,999.92
2022-09-15T23:59:08.455Z,999.93
